Time;durP1;ratioP1;P1;durP2;ratioP2;P2;SDS_P1;SDS_P2;PMS_P1;PMS_P2;Temp;Humidity;BMP_temperature;BMP_pressure;BME280_temperature;BME280_humidity;BME280_pressure;Samples;Min_cycle;Max_cycle;Signal;HPM_P1;HPM_P2
2023/06/08 00:05:18;;;;;;;11.97;10.97;;;18.50;99.90;;;;;;5201973;23;20543;-89
2023/06/08 00:34:46;;;;;;;12.77;11.67;;;17.90;99.90;;;;;;5903039;23;20700;-87
2023/06/08 02:17:08;;;;;;;15.90;14.60;;;16.50;99.90;;;;;;5656032;23;20496;-90
2023/06/08 02:20:04;;;;;;;;;;;;;;;;;;;;;
2023/06/08 02:33:22;;;;;;;20.57;18.37;;;16.30;99.90;;;;;;4929115;29;20493;-87
2023/06/08 02:35:51;;;;;;;18.40;16.70;;;16.40;99.90;;;;;;4921979;29;20532;-88
2023/06/08 02:51:56;;;;;;;18.37;16.77;;;16.40;99.90;;;;;;5795786;23;20451;-90
2023/06/08 02:54:40;;;;;;;18.73;16.70;;;16.50;99.90;;;;;;4962223;29;20396;-90
2023/06/08 02:57:29;;;;;;;16.63;15.23;;;16.50;99.90;;;;;;4958801;29;20447;-92
2023/06/08 03:11:10;;;;;;;17.30;15.80;;;16.60;99.90;;;;;;5268496;23;20507;-92
2023/06/08 03:19:16;;;;;;;;;;;;;;;;;;;;;
2023/06/08 03:21:56;;;;;;;20.67;18.33;;;17.10;99.90;;;;;;4954098;29;20461;-93
2023/06/08 03:24:54;;;;;;;18.60;15.70;;;17.00;99.90;;;;;;4963640;29;20408;-92
2023/06/08 03:27:48;;;;;;;18.70;16.90;;;17.50;99.90;;;;;;4953523;29;20451;-93
2023/06/08 04:16:51;;;;;;;15.20;12.80;;;20.60;99.90;;;;;;4915087;29;20466;-91
2023/06/08 04:19:23;;;;;;;15.93;14.43;;;20.20;99.90;;;;;;5656828;23;21545;-91
2023/06/08 04:28:03;;;;;;;;;;;;;;;;;;;;;
2023/06/08 04:30:50;;;;;;;15.00;13.70;;;19.70;99.90;;;;;;4935888;29;20417;-89
2023/06/08 04:33:21;;;;;;;19.40;17.60;;;19.70;99.90;;;;;;4946532;29;20446;-90
2023/06/08 04:39:17;;;;;;;;;;;;;;;;;;;;;
2023/06/08 04:41:59;;;;;;;17.70;15.83;;;19.90;99.90;;;;;;4938828;29;20446;-89
2023/06/08 04:47:48;;;;;;;17.23;15.43;;;19.80;99.90;;;;;;4938855;29;20721;-90
2023/06/08 04:50:23;;;;;;;15.53;14.33;;;20.00;99.90;;;;;;4949188;29;20457;-87
2023/06/08 04:56:18;;;;;;;17.73;15.70;;;20.20;99.90;;;;;;5203258;23;20468;-90
2023/06/08 04:58:51;;;;;;;17.90;16.20;;;20.20;99.90;;;;;;5652960;23;21547;-88
2023/06/08 05:01:21;;;;;;;16.30;14.70;;;20.20;99.90;;;;;;4953905;28;20421;-88
2023/06/08 05:09:14;;;;;;;16.07;14.77;;;20.70;99.90;;;;;;5451073;23;20501;-85
2023/06/08 05:11:54;;;;;;;17.97;16.30;;;20.60;99.90;;;;;;4944576;29;20630;-88
2023/06/08 05:14:29;;;;;;;17.23;15.43;;;20.90;99.90;;;;;;4936541;29;20534;-86
2023/06/08 05:17:04;;;;;;;18.20;16.30;;;21.10;99.90;;;;;;4929597;29;20464;-87
2023/06/08 05:19:33;;;;;;;16.60;15.00;;;21.10;99.90;;;;;;4946102;29;20452;-85
2023/06/08 05:22:06;;;;;;;18.50;16.90;;;20.90;99.90;;;;;;4946110;29;20461;-90
2023/06/08 05:24:35;;;;;;;16.43;14.70;;;20.80;99.90;;;;;;4945255;29;20489;-88
2023/06/08 05:27:10;;;;;;;18.63;16.83;;;20.80;99.90;;;;;;4963621;23;20530;-85
2023/06/08 05:29:42;;;;;;;17.80;14.83;;;20.90;99.90;;;;;;4964401;28;20416;-86
2023/06/08 05:32:28;;;;;;;16.77;15.13;;;21.00;99.90;;;;;;5169904;23;20503;-86
2023/06/08 05:34:56;;;;;;;16.70;14.97;;;21.10;99.90;;;;;;4945030;29;20436;-88
2023/06/08 05:37:42;;;;;;;17.30;15.80;;;21.30;99.90;;;;;;4960488;28;20511;-90
2023/06/08 05:40:40;;;;;;;16.93;14.80;;;21.40;99.90;;;;;;4946921;29;20416;-91
2023/06/08 05:43:18;;;;;;;15.87;14.57;;;21.50;99.90;;;;;;4945247;29;20444;-86
2023/06/08 05:45:45;;;;;;;16.73;15.27;;;21.70;99.90;;;;;;4943105;29;20514;-84
2023/06/08 05:48:19;;;;;;;15.83;14.20;;;21.70;99.90;;;;;;4942329;29;20522;-83
2023/06/08 05:50:46;;;;;;;16.67;15.10;;;22.00;99.90;;;;;;4949786;28;20470;-84
2023/06/08 05:53:13;;;;;;;15.73;14.23;;;22.20;99.90;;;;;;4954352;28;20419;-85
2023/06/08 05:55:41;;;;;;;14.53;13.30;;;22.30;99.90;;;;;;4956089;29;20435;-91
2023/06/08 05:58:09;;;;;;;14.30;13.10;;;22.20;99.90;;;;;;4947004;29;20526;-86
2023/06/08 06:00:45;;;;;;;15.00;13.63;;;22.00;99.90;;;;;;4943810;29;20494;-89
2023/06/08 06:03:15;;;;;;;15.50;13.90;;;22.10;99.90;;;;;;4937986;29;20440;-85
2023/06/08 06:05:42;;;;;;;13.70;12.50;;;22.30;99.90;;;;;;4941174;29;20464;-83
2023/06/08 06:08:10;;;;;;;13.47;12.30;;;22.40;99.90;;;;;;4947877;29;20405;-83
2023/06/08 06:10:48;;;;;;;14.90;13.50;;;22.80;99.90;;;;;;4954979;28;20413;-84
2023/06/08 06:13:16;;;;;;;14.87;13.70;;;23.00;99.90;;;;;;4958641;28;20488;-83
2023/06/08 06:15:43;;;;;;;13.57;12.47;;;23.20;99.90;;;;;;4956674;28;20466;-86
2023/06/08 06:18:10;;;;;;;15.17;12.87;;;22.90;99.90;;;;;;4948363;28;20433;-83
2023/06/08 06:20:39;;;;;;;13.37;12.17;;;23.00;99.90;;;;;;4949785;29;20424;-86
2023/06/08 06:23:07;;;;;;;13.70;12.37;;;23.20;99.90;;;;;;4960984;28;20485;-87
2023/06/08 06:25:43;;;;;;;14.07;12.77;;;23.50;99.90;;;;;;4941335;29;20482;-84
2023/06/08 06:28:10;;;;;;;14.87;13.33;;;23.80;99.90;;;;;;4941417;29;20425;-85
2023/06/08 06:30:37;;;;;;;14.30;13.00;;;23.90;99.90;;;;;;4944645;28;20525;-83
2023/06/08 06:33:05;;;;;;;13.40;12.40;;;23.90;99.90;;;;;;4942041;29;20482;-83
2023/06/08 06:35:32;;;;;;;14.30;12.30;;;23.80;99.90;;;;;;4941806;29;20429;-85
2023/06/08 06:38:04;;;;;;;13.10;11.80;;;23.80;99.90;;;;;;4943167;29;20424;-86
2023/06/08 06:40:31;;;;;;;13.83;11.70;;;23.90;99.90;;;;;;4942413;29;20858;-86
2023/06/08 06:42:58;;;;;;;11.80;10.90;;;24.10;99.90;;;;;;4942216;29;20549;-83
2023/06/08 06:45:31;;;;;;;11.83;10.07;;;24.60;99.90;;;;;;4938649;29;20639;-89
2023/06/08 06:48:00;;;;;;;11.77;10.67;;;25.30;99.90;;;;;;4932578;29;20427;-88
2023/06/08 06:50:27;;;;;;;15.90;9.90;;;25.50;99.90;;;;;;4957374;28;20477;-87
2023/06/08 06:52:54;;;;;;;10.60;9.70;;;25.90;99.90;;;;;;4942706;29;20468;-82
2023/06/08 06:55:23;;;;;;;10.83;10.03;;;26.20;99.90;;;;;;4947169;29;20506;-84
2023/06/08 06:57:52;;;;;;;9.70;9.00;;;26.80;99.90;;;;;;4941584;29;20785;-85
2023/06/08 07:00:19;;;;;;;13.03;9.47;;;27.00;99.90;;;;;;4938935;29;20463;-82
2023/06/08 07:02:48;;;;;;;9.67;8.80;;;27.40;99.90;;;;;;4944919;29;20428;-91
2023/06/08 07:05:19;;;;;;;12.07;10.27;;;28.00;99.90;;;;;;4939855;29;20421;-84
2023/06/08 07:07:46;;;;;;;11.60;10.43;;;29.00;99.90;;;;;;4942868;29;21239;-88
2023/06/08 07:10:13;;;;;;;9.43;8.63;;;29.10;99.90;;;;;;4941980;29;20459;-84
2023/06/08 07:12:42;;;;;;;8.70;8.00;;;28.70;99.90;;;;;;4941342;29;20482;-88
2023/06/08 07:15:11;;;;;;;9.23;8.50;;;28.50;99.90;;;;;;4938395;29;20458;-85
2023/06/08 07:17:39;;;;;;;10.40;9.33;;;29.80;99.90;;;;;;4938521;29;21076;-87
2023/06/08 07:20:10;;;;;;;8.33;7.73;;;32.30;99.90;;;;;;4943260;29;20472;-88
2023/06/08 07:22:38;;;;;;;9.67;8.80;;;33.60;96.70;;;;;;4944196;29;20434;-85
2023/06/08 07:25:27;;;;;;;9.47;8.70;;;34.80;93.00;;;;;;4939010;29;20439;-83
2023/06/08 07:28:18;;;;;;;11.93;9.00;;;35.30;86.70;;;;;;4937491;29;20442;-84
2023/06/08 07:30:47;;;;;;;9.53;8.93;;;35.50;81.30;;;;;;4936454;29;20514;-80
2023/06/08 07:33:14;;;;;;;18.70;8.00;;;35.60;77.10;;;;;;4933110;29;20469;-86
2023/06/08 07:35:43;;;;;;;8.40;7.70;;;36.60;75.70;;;;;;4940053;29;20447;-82
2023/06/08 07:38:14;;;;;;;8.93;7.67;;;37.40;69.40;;;;;;4933809;29;20464;-82
2023/06/08 07:40:41;;;;;;;8.07;7.40;;;38.50;63.50;;;;;;4937384;29;20783;-81
2023/06/08 07:43:08;;;;;;;9.10;6.93;;;37.60;63.20;;;;;;4936860;29;20482;-81
2023/06/08 07:45:35;;;;;;;7.87;7.27;;;37.40;62.40;;;;;;4932110;29;20845;-82
2023/06/08 07:48:02;;;;;;;7.90;7.30;;;36.50;64.40;;;;;;4932571;29;20674;-85
2023/06/08 07:50:29;;;;;;;8.10;7.10;;;37.10;63.20;;;;;;4936359;29;20469;-86
2023/06/08 07:52:56;;;;;;;9.03;7.37;;;35.60;65.80;;;;;;4942708;29;20446;-85
2023/06/08 07:55:23;;;;;;;8.23;7.53;;;35.50;66.70;;;;;;4947059;29;20482;-83
2023/06/08 07:57:50;;;;;;;7.60;7.00;;;36.80;64.70;;;;;;4944581;29;20446;-82
2023/06/08 08:00:19;;;;;;;8.10;7.40;;;38.10;61.50;;;;;;4934372;29;20450;-84
2023/06/08 08:02:46;;;;;;;7.33;6.73;;;38.20;59.50;;;;;;4944357;29;20474;-82
2023/06/08 08:05:13;;;;;;;7.47;6.97;;;35.20;64.60;;;;;;4946134;29;20475;-88
2023/06/08 08:07:43;;;;;;;8.37;7.70;;;33.70;69.20;;;;;;4943240;29;20472;-87
2023/06/08 08:10:10;;;;;;;9.13;8.33;;;32.40;73.90;;;;;;4934740;29;20526;-83
2023/06/08 08:12:38;;;;;;;8.80;8.00;;;31.90;78.70;;;;;;4938974;29;20835;-85
2023/06/08 08:15:09;;;;;;;8.53;7.83;;;32.40;78.50;;;;;;4940798;29;20481;-82
2023/06/08 08:17:36;;;;;;;8.90;8.10;;;33.80;76.00;;;;;;4940432;29;20446;-83
2023/06/08 08:20:05;;;;;;;9.33;7.57;;;35.90;70.60;;;;;;4937430;29;20477;-85
2023/06/08 08:22:34;;;;;;;7.63;6.93;;;37.60;61.80;;;;;;4941813;29;20447;-85
2023/06/08 08:25:04;;;;;;;6.40;5.80;;;36.60;59.80;;;;;;4943982;29;20465;-86
2023/06/08 08:27:34;;;;;;;5.67;5.17;;;34.70;62.50;;;;;;4943377;29;20469;-83
2023/06/08 08:30:05;;;;;;;7.90;5.97;;;34.00;66.30;;;;;;4945256;29;20462;-83
2023/06/08 08:32:35;;;;;;;6.33;5.73;;;33.20;69.80;;;;;;4942471;29;20466;-84
2023/06/08 08:35:10;;;;;;;6.07;5.67;;;33.00;69.60;;;;;;4938812;29;20647;-83
2023/06/08 08:37:37;;;;;;;6.40;5.90;;;32.00;70.00;;;;;;4939535;29;20449;-88
2023/06/08 08:40:09;;;;;;;7.60;6.53;;;31.60;73.60;;;;;;4934647;29;20446;-88
2023/06/08 08:42:45;;;;;;;7.83;7.17;;;30.80;76.20;;;;;;4941115;29;20467;-89
2023/06/08 08:45:15;;;;;;;7.80;6.60;;;31.40;76.80;;;;;;4941844;29;20794;-81
2023/06/08 08:47:48;;;;;;;6.73;6.23;;;31.30;77.10;;;;;;4939575;29;20655;-81
2023/06/08 08:50:17;;;;;;;7.00;6.50;;;30.80;78.70;;;;;;4948557;28;20446;-82
2023/06/08 08:52:46;;;;;;;6.80;6.30;;;31.20;78.30;;;;;;4940146;29;20658;-80
2023/06/08 08:55:13;;;;;;;10.63;7.73;;;31.30;78.30;;;;;;4940349;29;20456;-80
2023/06/08 08:58:10;;;;;;;7.03;6.50;;;31.80;77.90;;;;;;4939913;29;20502;-80
2023/06/08 09:00:39;;;;;;;7.10;6.50;;;32.80;75.10;;;;;;4937921;29;21138;-80
2023/06/08 09:03:06;;;;;;;8.00;7.40;;;32.90;72.90;;;;;;4937161;29;20446;-83
2023/06/08 09:05:33;;;;;;;7.20;6.60;;;33.60;68.80;;;;;;4939299;29;20518;-83
2023/06/08 09:08:00;;;;;;;7.07;6.57;;;33.30;72.50;;;;;;4941534;29;20848;-79
2023/06/08 09:10:27;;;;;;;9.03;7.40;;;34.60;69.30;;;;;;4940994;29;20453;-80
2023/06/08 09:12:55;;;;;;;6.70;6.20;;;35.20;67.50;;;;;;4939291;29;21068;-80
2023/06/08 09:15:34;;;;;;;7.60;6.93;;;35.00;65.70;;;;;;4938281;29;20439;-81
2023/06/08 09:18:15;;;;;;;7.07;6.57;;;33.80;68.00;;;;;;4952012;29;20461;-81
2023/06/08 09:20:43;;;;;;;7.43;6.73;;;31.30;75.00;;;;;;4944031;29;20446;-80
2023/06/08 09:23:23;;;;;;;7.67;7.13;;;29.80;80.80;;;;;;4940442;29;20457;-83
2023/06/08 09:25:53;;;;;;;7.00;6.40;;;29.00;82.60;;;;;;4941332;29;20457;-85
2023/06/08 09:28:31;;;;;;;7.33;6.50;;;29.40;84.40;;;;;;4934080;29;21019;-81
2023/06/08 09:31:09;;;;;;;8.07;7.40;;;29.90;84.70;;;;;;4934575;29;20682;-82
2023/06/08 09:33:44;;;;;;;8.40;7.70;;;29.60;85.30;;;;;;4944380;29;20461;-80
2023/06/08 09:36:16;;;;;;;7.53;7.00;;;29.50;83.80;;;;;;4942313;29;20513;-82
2023/06/08 09:38:43;;;;;;;7.37;6.97;;;29.60;86.60;;;;;;4939581;29;20457;-80
2023/06/08 09:41:20;;;;;;;7.90;7.20;;;29.90;87.10;;;;;;4938442;29;20450;-81
2023/06/08 09:43:49;;;;;;;7.80;7.30;;;30.30;86.90;;;;;;4939805;29;20446;-82
2023/06/08 09:46:48;;;;;;;6.47;5.97;;;30.10;83.70;;;;;;4936179;29;20483;-81
2023/06/08 09:49:16;;;;;;;6.80;6.30;;;29.10;85.70;;;;;;4930202;29;20771;-80
2023/06/08 09:51:53;;;;;;;7.50;7.00;;;29.10;87.60;;;;;;4932262;29;20447;-83
2023/06/08 09:54:26;;;;;;;8.20;7.50;;;29.10;86.20;;;;;;4934053;29;20461;-85
2023/06/08 09:56:54;;;;;;;7.00;6.50;;;29.00;89.10;;;;;;4931707;29;20455;-82
2023/06/08 09:59:28;;;;;;;7.20;6.70;;;28.40;90.90;;;;;;4932002;29;20449;-85
2023/06/08 10:02:02;;;;;;;7.40;6.77;;;28.20;90.60;;;;;;4931444;29;20506;-84
2023/06/08 10:04:35;;;;;;;7.63;6.93;;;28.50;92.10;;;;;;4950411;29;20472;-80
2023/06/08 10:07:09;;;;;;;7.00;6.33;;;28.60;91.00;;;;;;4933408;29;20517;-84
2023/06/08 10:09:45;;;;;;;7.60;7.00;;;28.80;89.80;;;;;;4933697;29;20464;-84
2023/06/08 10:12:17;;;;;;;7.67;7.10;;;29.10;90.10;;;;;;4938839;29;20841;-80
2023/06/08 10:14:45;;;;;;;9.40;8.00;;;29.20;90.40;;;;;;4938631;29;20459;-82
2023/06/08 10:17:15;;;;;;;7.10;6.50;;;29.30;90.70;;;;;;4931320;29;20787;-83
2023/06/08 10:19:42;;;;;;;9.63;6.53;;;29.10;90.20;;;;;;4935298;29;21288;-80
2023/06/08 10:22:09;;;;;;;5.53;5.13;;;29.20;86.20;;;;;;4936635;29;21089;-82
2023/06/08 10:24:37;;;;;;;6.03;5.43;;;28.90;77.50;;;;;;4933240;29;20528;-79
2023/06/08 10:27:18;;;;;;;4.53;4.07;;;28.30;80.40;;;;;;4935155;29;20486;-83
2023/06/08 10:29:58;;;;;;;5.73;5.33;;;27.90;74.80;;;;;;4935952;29;20446;-80
2023/06/08 10:32:33;;;;;;;5.80;5.20;;;27.80;77.00;;;;;;4938200;29;20464;-77
2023/06/08 10:35:05;;;;;;;5.23;4.77;;;27.70;77.80;;;;;;4937664;29;21040;-78
2023/06/08 10:37:35;;;;;;;5.80;5.23;;;27.70;76.40;;;;;;4934912;29;20450;-79
2023/06/08 10:40:10;;;;;;;4.70;4.30;;;27.50;76.60;;;;;;4936165;29;20446;-82
2023/06/08 10:42:58;;;;;;;5.43;5.03;;;27.10;77.40;;;;;;4941227;29;20453;-80
2023/06/08 10:45:46;;;;;;;5.63;5.17;;;27.10;79.50;;;;;;4930754;29;20629;-81
2023/06/08 10:48:18;;;;;;;5.23;4.83;;;27.10;79.30;;;;;;4933926;29;20758;-81
2023/06/08 10:50:49;;;;;;;7.73;5.20;;;27.00;80.80;;;;;;4935809;29;20460;-79
2023/06/08 10:53:38;;;;;;;5.20;4.80;;;27.20;80.90;;;;;;4940715;29;20493;-80
2023/06/08 10:56:08;;;;;;;5.33;4.93;;;27.50;79.50;;;;;;4935422;29;20716;-82
2023/06/08 10:58:52;;;;;;;4.80;4.50;;;27.40;81.70;;;;;;4938123;29;20472;-81
2023/06/08 11:01:21;;;;;;;4.80;4.40;;;27.70;80.30;;;;;;4936181;29;20649;-81
2023/06/08 11:03:48;;;;;;;17.20;5.20;;;27.40;81.00;;;;;;4938771;29;20509;-83
2023/06/08 11:06:21;;;;;;;5.57;5.17;;;27.40;82.20;;;;;;4952628;28;20432;-79
2023/06/08 11:08:49;;;;;;;8.77;6.20;;;27.20;82.90;;;;;;4933486;29;20632;-84
2023/06/08 11:11:19;;;;;;;4.73;4.43;;;27.30;83.70;;;;;;4932888;29;20521;-82
2023/06/08 11:13:46;;;;;;;5.53;5.03;;;27.10;85.60;;;;;;4920610;29;20426;-78
2023/06/08 11:16:12;;;;;;;8.50;5.97;;;27.50;85.30;;;;;;4938501;29;21039;-78
2023/06/08 11:18:40;;;;;;;7.50;5.13;;;27.60;85.40;;;;;;4934930;29;20867;-80
2023/06/08 11:21:16;;;;;;;5.43;5.03;;;27.70;83.70;;;;;;4937924;29;20480;-83
2023/06/08 11:23:44;;;;;;;5.30;4.90;;;27.90;84.60;;;;;;4934560;29;20428;-80
2023/06/08 11:26:11;;;;;;;5.70;5.20;;;28.20;82.60;;;;;;4934655;29;20514;-82
2023/06/08 11:28:38;;;;;;;6.07;5.60;;;28.10;83.40;;;;;;4938651;29;20631;-78
2023/06/08 11:31:06;;;;;;;6.10;5.70;;;28.20;82.60;;;;;;4932539;29;20766;-83
2023/06/08 11:33:34;;;;;;;6.43;5.50;;;28.50;81.60;;;;;;4930695;29;20470;-80
2023/06/08 11:36:02;;;;;;;5.43;5.00;;;28.60;80.70;;;;;;4936714;29;20503;-81
2023/06/08 11:38:29;;;;;;;8.20;5.13;;;28.30;81.80;;;;;;4935308;29;20517;-81
2023/06/08 11:40:59;;;;;;;6.37;5.77;;;27.80;84.00;;;;;;4933496;29;20770;-81
2023/06/08 11:43:26;;;;;;;6.10;5.60;;;27.70;85.80;;;;;;4940041;29;20544;-80
2023/06/08 11:45:57;;;;;;;5.20;4.77;;;28.20;86.40;;;;;;4938132;29;20429;-80
2023/06/08 11:48:23;;;;;;;6.67;5.53;;;28.40;83.90;;;;;;4939275;29;20490;-84
2023/06/08 11:50:51;;;;;;;5.83;5.30;;;28.30;82.90;;;;;;4938691;29;20509;-82
2023/06/08 11:53:22;;;;;;;5.80;5.40;;;28.20;80.80;;;;;;4934982;29;20425;-84
2023/06/08 11:55:53;;;;;;;6.30;5.77;;;28.30;79.90;;;;;;4938013;29;20914;-82
2023/06/08 11:58:32;;;;;;;5.50;5.10;;;28.70;77.90;;;;;;4937351;29;20493;-81
2023/06/08 12:01:07;;;;;;;6.00;5.50;;;28.10;78.30;;;;;;4938932;29;20456;-79
2023/06/08 12:03:47;;;;;;;5.83;5.30;;;27.70;79.20;;;;;;4938533;29;20412;-84
2023/06/08 12:06:24;;;;;;;6.20;5.60;;;27.70;77.50;;;;;;4938407;29;20511;-84
2023/06/08 12:08:55;;;;;;;5.87;5.03;;;27.90;80.10;;;;;;4940141;29;20456;-81
2023/06/08 12:11:25;;;;;;;5.70;5.20;;;27.90;78.50;;;;;;4937630;29;20492;-82
2023/06/08 12:13:56;;;;;;;5.53;5.00;;;27.80;78.90;;;;;;4939363;29;20442;-83
2023/06/08 12:16:23;;;;;;;6.50;5.80;;;28.00;79.30;;;;;;4935572;29;20483;-81
2023/06/08 12:18:50;;;;;;;6.30;5.70;;;28.20;78.80;;;;;;4932722;29;20438;-81
2023/06/08 12:21:19;;;;;;;10.13;6.20;;;28.30;79.40;;;;;;4941479;29;20461;-83
2023/06/08 12:23:46;;;;;;;5.57;5.17;;;28.10;78.90;;;;;;4935247;29;20418;-79
2023/06/08 12:26:14;;;;;;;6.10;5.60;;;28.20;77.80;;;;;;4934869;29;20446;-81
2023/06/08 12:28:42;;;;;;;5.70;5.20;;;28.80;77.90;;;;;;4937283;29;20491;-85
2023/06/08 12:31:09;;;;;;;6.60;6.10;;;28.70;75.20;;;;;;4947416;29;20454;-81
2023/06/08 12:33:36;;;;;;;6.40;5.80;;;29.10;75.30;;;;;;4952988;29;20500;-81
2023/06/08 12:36:04;;;;;;;6.37;5.97;;;29.00;74.30;;;;;;4945345;29;20942;-81
2023/06/08 12:38:31;;;;;;;7.13;6.07;;;29.00;73.70;;;;;;4941859;29;20745;-81
2023/06/08 12:40:58;;;;;;;6.57;5.97;;;28.60;75.30;;;;;;4938374;29;20442;-81
2023/06/08 12:43:25;;;;;;;5.70;5.40;;;28.20;77.70;;;;;;4937353;29;20446;-82
2023/06/08 12:45:53;;;;;;;5.73;5.23;;;27.90;79.00;;;;;;4933772;29;20451;-82
2023/06/08 12:48:22;;;;;;;5.70;5.30;;;27.40;78.80;;;;;;4940048;29;20524;-84
2023/06/08 12:50:57;;;;;;;6.13;5.20;;;27.20;80.30;;;;;;4941313;29;20501;-81
2023/06/08 12:53:24;;;;;;;6.23;5.70;;;27.10;80.20;;;;;;4933824;29;20691;-80
2023/06/08 12:55:51;;;;;;;5.97;5.47;;;26.90;81.30;;;;;;4929524;29;20451;-79
2023/06/08 12:58:17;;;;;;;6.57;5.97;;;26.90;82.00;;;;;;4938006;29;20682;-80
2023/06/08 13:00:45;;;;;;;5.80;5.40;;;27.30;80.80;;;;;;4932352;29;20909;-82
2023/06/08 13:03:12;;;;;;;7.03;6.27;;;27.80;80.00;;;;;;4941834;29;20458;-81
2023/06/08 13:05:40;;;;;;;7.17;6.47;;;28.10;78.50;;;;;;4943599;29;20438;-79
2023/06/08 13:08:08;;;;;;;5.50;5.10;;;28.50;74.50;;;;;;4932504;29;20493;-79
2023/06/08 13:10:37;;;;;;;9.90;5.10;;;29.00;75.60;;;;;;4939087;29;20453;-82
2023/06/08 13:13:06;;;;;;;6.63;5.47;;;28.90;75.20;;;;;;4935382;29;20455;-84
2023/06/08 13:15:38;;;;;;;6.50;6.00;;;28.60;75.20;;;;;;4937572;29;20466;-82
2023/06/08 13:18:06;;;;;;;5.87;5.33;;;28.00;75.10;;;;;;4938500;29;20466;-86
2023/06/08 13:20:35;;;;;;;6.10;5.70;;;27.40;76.80;;;;;;4931573;29;20446;-81
2023/06/08 13:23:02;;;;;;;6.50;6.00;;;27.50;77.20;;;;;;4940933;29;20417;-82
2023/06/08 13:25:29;;;;;;;7.27;4.77;;;27.80;75.70;;;;;;4938056;29;20433;-85
2023/06/08 13:27:58;;;;;;;9.20;8.30;;;27.90;74.00;;;;;;4941686;29;20464;-81
2023/06/08 13:30:26;;;;;;;7.20;6.50;;;27.80;74.10;;;;;;4933198;29;20778;-80
2023/06/08 13:32:59;;;;;;;6.40;5.90;;;28.00;75.50;;;;;;4939565;29;20528;-83
2023/06/08 13:35:29;;;;;;;6.23;5.80;;;28.40;75.30;;;;;;4941364;29;20812;-83
2023/06/08 13:37:56;;;;;;;6.00;5.50;;;28.80;74.60;;;;;;4936139;29;20447;-82
2023/06/08 13:40:34;;;;;;;5.77;5.37;;;28.90;74.90;;;;;;4940859;29;20601;-81
2023/06/08 13:43:01;;;;;;;5.73;5.33;;;28.40;76.00;;;;;;4943269;29;20503;-79
2023/06/08 13:45:29;;;;;;;6.67;6.00;;;27.80;76.10;;;;;;4955147;28;20428;-84
2023/06/08 13:47:56;;;;;;;5.00;4.60;;;27.50;76.10;;;;;;4939369;29;20509;-82
2023/06/08 13:50:26;;;;;;;5.90;5.50;;;27.20;74.50;;;;;;4941823;29;20470;-82
2023/06/08 13:52:56;;;;;;;6.40;5.83;;;27.50;74.80;;;;;;4941639;29;20409;-83
2023/06/08 13:55:27;;;;;;;9.33;6.40;;;27.70;75.30;;;;;;4941477;29;20444;-82
2023/06/08 13:57:56;;;;;;;5.83;5.43;;;28.00;72.60;;;;;;4935493;29;20487;-81
2023/06/08 14:00:23;;;;;;;9.43;5.30;;;28.30;71.50;;;;;;4941619;29;20431;-85
2023/06/08 14:02:51;;;;;;;6.30;5.73;;;28.40;71.60;;;;;;4938340;29;20442;-83
2023/06/08 14:05:20;;;;;;;6.50;5.83;;;28.70;70.90;;;;;;4940481;29;20477;-83
2023/06/08 14:07:49;;;;;;;6.53;5.93;;;28.70;72.00;;;;;;4940787;29;20490;-79
2023/06/08 14:10:17;;;;;;;9.90;6.37;;;28.30;72.90;;;;;;4940545;29;20440;-81
2023/06/08 14:12:46;;;;;;;6.70;6.00;;;28.10;72.60;;;;;;4933289;29;20480;-81
2023/06/08 14:15:16;;;;;;;5.70;5.30;;;27.90;73.60;;;;;;4940981;29;20518;-79
2023/06/08 14:17:46;;;;;;;5.53;5.20;;;27.60;74.40;;;;;;4942093;29;20442;-82
2023/06/08 14:20:13;;;;;;;8.67;6.17;;;27.30;74.10;;;;;;4937164;29;20484;-80
2023/06/08 14:22:41;;;;;;;6.17;5.63;;;27.40;74.60;;;;;;4939872;29;20520;-80
2023/06/08 14:25:08;;;;;;;7.10;6.40;;;27.30;75.50;;;;;;4938825;29;20432;-82
2023/06/08 14:27:34;;;;;;;6.20;5.60;;;27.10;76.10;;;;;;4939729;29;20772;-80
2023/06/08 14:30:02;;;;;;;8.53;5.67;;;27.20;78.10;;;;;;4949129;29;20443;-80
2023/06/08 14:32:30;;;;;;;5.03;4.73;;;27.10;78.60;;;;;;4940042;29;20485;-83
2023/06/08 14:34:57;;;;;;;7.60;5.47;;;26.90;78.40;;;;;;4940245;29;20420;-80
2023/06/08 14:37:24;;;;;;;5.87;5.37;;;26.90;79.50;;;;;;4935204;29;20413;-80
2023/06/08 14:39:51;;;;;;;5.90;5.50;;;26.90;79.00;;;;;;4934274;29;20458;-82
2023/06/08 14:42:18;;;;;;;6.50;6.00;;;26.90;78.60;;;;;;4940651;29;20495;-85
2023/06/08 14:44:58;;;;;;;6.87;6.37;;;27.00;77.40;;;;;;4938471;29;20443;-83
2023/06/08 14:47:25;;;;;;;6.33;5.83;;;26.90;78.80;;;;;;4934363;29;20417;-81
2023/06/08 14:49:52;;;;;;;8.30;5.43;;;27.00;78.10;;;;;;4942096;29;20450;-80
2023/06/08 14:52:23;;;;;;;5.07;4.77;;;27.00;76.00;;;;;;4938369;29;20482;-80
2023/06/08 14:54:50;;;;;;;5.10;4.80;;;27.10;75.20;;;;;;4937053;29;20442;-84
2023/06/08 14:57:17;;;;;;;5.83;5.33;;;27.40;75.50;;;;;;4930824;29;20551;-81
2023/06/08 14:59:45;;;;;;;5.70;5.20;;;27.50;77.70;;;;;;4938145;29;20624;-84
2023/06/08 15:02:13;;;;;;;5.93;5.37;;;27.90;74.50;;;;;;4932287;29;20457;-84
2023/06/08 15:04:40;;;;;;;5.30;4.90;;;27.80;72.80;;;;;;4938942;29;20432;-83
2023/06/08 15:07:08;;;;;;;6.27;5.87;;;27.80;71.00;;;;;;4939071;29;20438;-79
2023/06/08 15:09:37;;;;;;;6.10;5.70;;;27.90;73.50;;;;;;4938411;29;20536;-85
2023/06/08 15:12:05;;;;;;;5.93;5.23;;;28.30;71.70;;;;;;4932605;29;20505;-79
2023/06/08 15:14:32;;;;;;;6.23;5.60;;;28.40;70.40;;;;;;4939436;29;20524;-83
2023/06/08 15:17:00;;;;;;;5.77;5.37;;;28.20;70.40;;;;;;4937580;29;20537;-81
2023/06/08 15:19:28;;;;;;;6.17;5.20;;;27.90;70.50;;;;;;4937003;29;20802;-84
2023/06/08 15:21:55;;;;;;;5.87;5.47;;;27.60;70.80;;;;;;4942216;29;20431;-83
2023/06/08 15:24:23;;;;;;;6.10;5.63;;;27.20;71.20;;;;;;4943805;29;20496;-80
2023/06/08 15:26:51;;;;;;;5.77;5.27;;;26.90;70.70;;;;;;4942272;29;20510;-81
2023/06/08 15:29:19;;;;;;;6.00;5.50;;;26.70;71.90;;;;;;4943338;29;20650;-82
2023/06/08 15:31:46;;;;;;;5.67;5.27;;;26.50;71.80;;;;;;4942738;29;20433;-80
2023/06/08 15:34:13;;;;;;;6.50;5.90;;;26.60;73.10;;;;;;4941491;29;20813;-80
2023/06/08 15:36:42;;;;;;;5.53;5.13;;;26.50;72.70;;;;;;4941485;29;20442;-82
2023/06/08 15:39:09;;;;;;;7.03;6.30;;;26.60;73.30;;;;;;4941115;29;20425;-80
2023/06/08 15:41:36;;;;;;;6.13;5.57;;;26.80;74.30;;;;;;4941867;29;20519;-79
2023/06/08 15:44:04;;;;;;;7.13;6.10;;;26.70;73.20;;;;;;4941506;29;20453;-80
2023/06/08 15:46:33;;;;;;;5.83;5.23;;;26.80;73.30;;;;;;4940311;29;20445;-78
2023/06/08 15:49:00;;;;;;;6.63;6.00;;;26.80;71.90;;;;;;4950541;28;20464;-85
2023/06/08 15:51:28;;;;;;;7.83;5.40;;;27.20;71.60;;;;;;4960850;28;20429;-84
2023/06/08 15:53:58;;;;;;;6.27;5.77;;;27.20;70.70;;;;;;4948556;29;20453;-85
2023/06/08 15:56:26;;;;;;;5.80;5.30;;;27.20;70.90;;;;;;4932760;29;20537;-77
2023/06/08 15:58:56;;;;;;;7.57;5.73;;;27.20;70.80;;;;;;4937839;29;20428;-81
2023/06/08 16:01:23;;;;;;;7.03;6.23;;;27.20;69.60;;;;;;4932482;29;20623;-81
2023/06/08 16:03:49;;;;;;;8.53;5.23;;;27.30;70.60;;;;;;4938204;29;20422;-82
2023/06/08 16:06:17;;;;;;;10.20;5.50;;;27.30;70.90;;;;;;4933361;29;20459;-82
2023/06/08 16:08:45;;;;;;;6.17;5.67;;;27.60;68.90;;;;;;4934845;29;20493;-81
2023/06/08 16:11:15;;;;;;;6.13;5.67;;;27.70;69.90;;;;;;4940679;29;20413;-80
2023/06/08 16:13:45;;;;;;;6.00;5.23;;;27.80;71.00;;;;;;4929652;29;20446;-80
2023/06/08 16:16:12;;;;;;;5.87;5.47;;;27.70;69.70;;;;;;4935109;29;20778;-79
2023/06/08 16:18:40;;;;;;;5.63;5.13;;;27.30;68.80;;;;;;4924844;29;20450;-80
2023/06/08 16:21:09;;;;;;;6.10;5.70;;;27.10;69.60;;;;;;4942078;29;20450;-80
2023/06/08 16:23:38;;;;;;;6.43;6.03;;;27.10;70.30;;;;;;4937878;29;20454;-84
2023/06/08 16:26:05;;;;;;;6.10;5.70;;;27.00;71.30;;;;;;4939378;29;20452;-82
2023/06/08 16:28:32;;;;;;;9.23;5.60;;;26.80;72.60;;;;;;4942077;29;20549;-83
2023/06/08 16:30:59;;;;;;;5.97;5.50;;;26.70;72.80;;;;;;4942715;29;20450;-79
2023/06/08 16:33:26;;;;;;;5.50;5.10;;;26.60;73.60;;;;;;4939813;29;20469;-81
2023/06/08 16:35:52;;;;;;;10.93;6.40;;;26.40;73.80;;;;;;4940508;29;21019;-81
2023/06/08 16:38:22;;;;;;;6.50;5.77;;;26.60;73.00;;;;;;4936591;29;20420;-81
2023/06/08 16:40:52;;;;;;;5.43;5.03;;;26.50;72.10;;;;;;4945101;29;20637;-80
2023/06/08 16:43:19;;;;;;;5.47;5.07;;;26.50;72.40;;;;;;4941408;29;20450;-82
2023/06/08 16:45:46;;;;;;;6.10;5.43;;;26.60;72.40;;;;;;4941164;29;20504;-79
2023/06/08 16:48:13;;;;;;;5.77;5.37;;;26.70;72.90;;;;;;4941459;29;20472;-80
2023/06/08 16:50:40;;;;;;;5.93;5.30;;;26.60;72.30;;;;;;4941977;29;20435;-80
2023/06/08 16:53:08;;;;;;;5.40;4.90;;;26.70;70.80;;;;;;4938075;29;20453;-81
2023/06/08 16:55:34;;;;;;;5.70;5.30;;;26.60;72.10;;;;;;4942611;29;21010;-85
2023/06/08 16:58:02;;;;;;;6.10;5.70;;;26.50;72.20;;;;;;4943878;29;20500;-82
2023/06/08 17:00:29;;;;;;;7.77;6.10;;;26.50;72.30;;;;;;4935111;29;21017;-86
2023/06/08 17:02:55;;;;;;;8.67;6.27;;;26.60;72.90;;;;;;4938658;29;20454;-80
2023/06/08 17:05:25;;;;;;;5.90;5.50;;;26.50;73.00;;;;;;4941563;29;20502;-81